createdAt,value
2023-05-05T00:00:46.414Z,6210.00
2023-05-05T00:01:46.535Z,6261.00
2023-05-05T00:02:46.585Z,6286.00
2023-05-05T00:03:46.612Z,6336.00
2023-05-05T00:04:46.635Z,6350.00
2023-05-05T00:05:46.687Z,6387.00
2023-05-05T00:06:46.734Z,6424.00
2023-05-05T00:07:46.779Z,6447.00
2023-05-05T00:08:46.777Z,6458.00
2023-05-05T00:09:46.811Z,6516.00
2023-05-05T00:10:46.872Z,6540.00
2023-05-05T00:11:46.922Z,6569.00
2023-05-05T00:12:46.980Z,6609.00
2023-05-05T00:13:47.008Z,6699.00
2023-05-05T00:14:47.066Z,6844.00
2023-05-05T00:15:47.146Z,6924.00
2023-05-05T00:16:47.250Z,6981.00
2023-05-05T00:17:47.252Z,7028.00
2023-05-05T00:18:47.257Z,7066.00
2023-05-05T00:19:47.302Z,7066.00
2023-05-05T00:20:47.563Z,7078.00
2023-05-05T00:21:47.332Z,7096.00
2023-05-05T00:22:47.315Z,7122.00
2023-05-05T00:23:47.328Z,7216.00
2023-05-05T00:24:47.332Z,7266.00
2023-05-05T00:25:47.349Z,7297.00
2023-05-05T00:26:47.343Z,7337.00
2023-05-05T00:27:47.372Z,7373.00
2023-05-05T00:28:47.390Z,7326.00
2023-05-05T00:29:47.404Z,7238.00
2023-05-05T00:30:47.481Z,7033.00
2023-05-05T00:31:47.415Z,6984.00
2023-05-05T00:32:47.464Z,6948.00
2023-05-05T00:33:47.474Z,6885.00
2023-05-05T00:34:47.501Z,6837.00
2023-05-05T00:35:47.503Z,6820.00
2023-05-05T00:36:47.523Z,6689.00
2023-05-05T00:37:47.527Z,6631.00
2023-05-05T00:38:47.564Z,6875.00
2023-05-05T00:39:47.578Z,6841.00
2023-05-05T00:40:47.606Z,6874.00
2023-05-05T00:41:47.616Z,6876.00
2023-05-05T00:42:47.641Z,6873.00
2023-05-05T00:43:47.639Z,6876.00
2023-05-05T00:44:47.659Z,6788.00
2023-05-05T00:45:47.791Z,6736.00
2023-05-05T00:46:47.741Z,6753.00
2023-05-05T00:47:47.724Z,6750.00
2023-05-05T00:48:47.729Z,6793.00
2023-05-05T00:49:47.747Z,6809.00
2023-05-05T00:50:47.782Z,6861.00
2023-05-05T00:51:47.765Z,6910.00
2023-05-05T00:52:47.779Z,6922.00
2023-05-05T00:53:47.810Z,6930.00
2023-05-05T00:54:47.824Z,6946.00
2023-05-05T00:55:47.839Z,6930.00
2023-05-05T00:56:47.868Z,6939.00
2023-05-05T00:57:47.869Z,7002.00
2023-05-05T00:58:47.892Z,7029.00
2023-05-05T00:59:47.925Z,7110.00
2023-05-05T01:00:47.943Z,7107.00
2023-05-05T01:01:48.022Z,7013.00
2023-05-05T01:02:48.050Z,7045.00
2023-05-05T01:03:48.072Z,7119.00
2023-05-05T01:04:48.000Z,7245.00
2023-05-05T01:05:48.018Z,7319.00
2023-05-05T01:06:48.033Z,7309.00
2023-05-05T01:07:48.065Z,7277.00
2023-05-05T01:08:48.057Z,7274.00
2023-05-05T01:09:48.083Z,7117.00
2023-05-05T01:10:48.107Z,7006.00
2023-05-05T01:11:48.123Z,6926.00
2023-05-05T01:12:48.191Z,6806.00
2023-05-05T01:13:48.176Z,6743.00
2023-05-05T01:14:48.187Z,6702.00
2023-05-05T01:15:48.253Z,6632.00
2023-05-05T01:16:48.241Z,6544.00
2023-05-05T01:17:48.277Z,6476.00
2023-05-05T01:18:48.252Z,6440.00
2023-05-05T01:19:48.283Z,6401.00
2023-05-05T01:20:48.302Z,6350.00
2023-05-05T01:21:48.304Z,6299.00
2023-05-05T01:22:48.346Z,6247.00
2023-05-05T01:23:48.359Z,6282.00
2023-05-05T01:24:48.379Z,6396.00
2023-05-05T01:25:48.377Z,6482.00
2023-05-05T01:26:48.386Z,6462.00
2023-05-05T01:27:48.430Z,6497.00
2023-05-05T01:28:48.441Z,6540.00
2023-05-05T01:29:48.465Z,6618.00
2023-05-05T01:30:48.459Z,6664.00
2023-05-05T01:31:48.518Z,6724.00
2023-05-05T01:32:48.586Z,6752.00
2023-05-05T01:33:48.528Z,6864.00
2023-05-05T01:34:48.558Z,6994.00
2023-05-05T01:35:48.567Z,7164.00
2023-05-05T01:36:48.565Z,7223.00
2023-05-05T01:37:48.585Z,7225.00
2023-05-05T01:38:48.605Z,7265.00
2023-05-05T01:39:48.598Z,7316.00
2023-05-05T01:40:48.596Z,7347.00
2023-05-05T01:41:48.627Z,7380.00
2023-05-05T01:42:48.611Z,7410.00
2023-05-05T01:43:48.659Z,7447.00
2023-05-05T01:44:48.647Z,7490.00
2023-05-05T01:45:48.718Z,7534.00
2023-05-05T01:46:48.680Z,7572.00
2023-05-05T01:47:48.787Z,7590.00
2023-05-05T01:48:48.715Z,7598.00
2023-05-05T01:49:48.727Z,7627.00
2023-05-05T01:50:48.736Z,7658.00
2023-05-05T01:51:48.734Z,7735.00
2023-05-05T01:52:48.756Z,7785.00
2023-05-05T01:53:48.753Z,7835.00
2023-05-05T01:54:48.770Z,7856.00
2023-05-05T01:55:48.806Z,7817.00
2023-05-05T01:56:48.795Z,7799.00
2023-05-05T01:57:48.814Z,7987.00
2023-05-05T01:58:48.846Z,8441.00
2023-05-05T01:59:48.847Z,8836.00
2023-05-05T02:00:48.846Z,9071.00
2023-05-05T02:01:48.888Z,9065.00
2023-05-05T02:02:48.962Z,8981.00
2023-05-05T02:03:48.897Z,8823.00
2023-05-05T02:04:48.922Z,8661.00
2023-05-05T02:05:48.951Z,8614.00
2023-05-05T02:06:48.949Z,8445.00
2023-05-05T02:07:48.998Z,8282.00
2023-05-05T02:08:49.011Z,8158.00
2023-05-05T02:09:49.053Z,8052.00
2023-05-05T02:10:49.053Z,7949.00
2023-05-05T02:11:49.068Z,7896.00
2023-05-05T02:12:49.130Z,7927.00
2023-05-05T02:13:49.220Z,7915.00
2023-05-05T02:14:49.145Z,7924.00
2023-05-05T02:15:49.219Z,7902.00
2023-05-05T02:16:49.196Z,7864.00
2023-05-05T02:17:49.263Z,7813.00
2023-05-05T02:18:49.258Z,7787.00
2023-05-05T02:19:49.299Z,7812.00
2023-05-05T02:20:49.340Z,7701.00
2023-05-05T02:21:49.343Z,7564.00
2023-05-05T02:22:49.394Z,7527.00
2023-05-05T02:23:49.425Z,7245.00
2023-05-05T02:24:49.460Z,7017.00
2023-05-05T02:25:49.476Z,6835.00
2023-05-05T02:26:49.506Z,6863.00
2023-05-05T02:27:49.532Z,6965.00
2023-05-05T02:28:49.580Z,6970.00
2023-05-05T02:29:49.601Z,6946.00
2023-05-05T02:30:49.638Z,6904.00
2023-05-05T02:31:49.683Z,6907.00
2023-05-05T02:32:49.747Z,6977.00
2023-05-05T02:33:49.704Z,7044.00
2023-05-05T02:34:49.729Z,7085.00
2023-05-05T02:35:49.729Z,7105.00
2023-05-05T02:36:49.738Z,7148.00
2023-05-05T02:37:49.795Z,7053.00
2023-05-05T02:38:49.827Z,6882.00
2023-05-05T02:39:49.871Z,6761.00
2023-05-05T02:40:49.912Z,6688.00
2023-05-05T02:41:49.938Z,6642.00
2023-05-05T02:42:50.010Z,6615.00
2023-05-05T02:43:50.021Z,6594.00
2023-05-05T02:44:50.063Z,6574.00
2023-05-05T02:45:50.105Z,6699.00
2023-05-05T02:46:50.156Z,7029.00
2023-05-05T02:47:50.185Z,7321.00
2023-05-05T02:48:50.213Z,7535.00
2023-05-05T02:49:50.248Z,7645.00
2023-05-05T02:50:50.308Z,7754.00
2023-05-05T02:51:50.330Z,7742.00
2023-05-05T02:52:50.392Z,7777.00
2023-05-05T02:53:50.467Z,7767.00
2023-05-05T02:54:50.508Z,7764.00
2023-05-05T02:55:50.582Z,7722.00
2023-05-05T02:56:50.644Z,7756.00
2023-05-05T02:57:50.708Z,7769.00
2023-05-05T02:58:50.755Z,7727.00
2023-05-05T02:59:50.781Z,7723.00
2023-05-05T03:00:50.783Z,7781.00
2023-05-05T03:01:50.890Z,7682.00
2023-05-05T03:02:50.907Z,7579.00
2023-05-05T03:03:50.935Z,7477.00
2023-05-05T03:04:50.852Z,7303.00
2023-05-05T03:05:50.839Z,7130.00
2023-05-05T03:06:50.863Z,7010.00
2023-05-05T03:07:50.874Z,6958.00
2023-05-05T03:08:50.916Z,6865.00
2023-05-05T03:09:50.928Z,6832.00
2023-05-05T03:10:50.951Z,6975.00
2023-05-05T03:11:51.023Z,6932.00
2023-05-05T03:12:51.064Z,6655.00
2023-05-05T03:13:51.126Z,6444.00
2023-05-05T03:14:51.171Z,6297.00
2023-05-05T03:15:51.262Z,6176.00
2023-05-05T03:16:51.346Z,6031.00
2023-05-05T03:17:51.380Z,6319.00
2023-05-05T03:18:51.404Z,6555.00
2023-05-05T03:19:51.472Z,6698.00
2023-05-05T03:20:51.503Z,6877.00
2023-05-05T03:21:51.547Z,7032.00
2023-05-05T03:22:51.599Z,7190.00
2023-05-05T03:23:51.665Z,7258.00
2023-05-05T03:24:51.723Z,7341.00
2023-05-05T03:25:51.779Z,7402.00
2023-05-05T03:26:51.866Z,7532.00
2023-05-05T03:27:51.986Z,7603.00
2023-05-05T03:28:51.939Z,7707.00
2023-05-05T03:29:51.992Z,7796.00
2023-05-05T03:30:52.030Z,7860.00
2023-05-05T03:31:52.112Z,7921.00
2023-05-05T03:32:52.211Z,7951.00
2023-05-05T03:33:52.203Z,7965.00
2023-05-05T03:34:52.263Z,7976.00
2023-05-05T03:35:52.316Z,7980.00
2023-05-05T03:36:52.383Z,8065.00
2023-05-05T03:37:52.436Z,8201.00
2023-05-05T03:38:52.506Z,8367.00
2023-05-05T03:39:52.574Z,8473.00
2023-05-05T03:40:52.614Z,8556.00
2023-05-05T03:41:52.694Z,8594.00
2023-05-05T03:42:52.785Z,8633.00
2023-05-05T03:43:52.840Z,8665.00
2023-05-05T03:44:52.874Z,8697.00
2023-05-05T03:45:52.968Z,8712.00
2023-05-05T03:46:53.009Z,8678.00
2023-05-05T03:47:53.092Z,8636.00
2023-05-05T03:48:53.110Z,8631.00
2023-05-05T03:49:53.194Z,8611.00
2023-05-05T03:50:53.242Z,8627.00
2023-05-05T03:51:53.299Z,8661.00
2023-05-05T03:52:53.361Z,8651.00
2023-05-05T03:53:53.408Z,8543.00
2023-05-05T03:54:53.428Z,8440.00
2023-05-05T03:55:53.511Z,8408.00
2023-05-05T03:56:53.539Z,8381.00
2023-05-05T03:57:53.592Z,8347.00
2023-05-05T03:58:53.604Z,8291.00
2023-05-05T03:59:53.595Z,8225.00
2023-05-05T04:00:53.592Z,8186.00
2023-05-05T04:01:53.573Z,8121.00
2023-05-05T04:02:53.658Z,7947.00
2023-05-05T04:03:53.673Z,7737.00
2023-05-05T04:04:53.582Z,7517.00
2023-05-05T04:05:53.587Z,7359.00
2023-05-05T04:06:53.603Z,7381.00
2023-05-05T04:07:53.611Z,7266.00
2023-05-05T04:08:53.640Z,7235.00
2023-05-05T04:09:53.622Z,7281.00
2023-05-05T04:10:53.650Z,7378.00
2023-05-05T04:11:53.655Z,7246.00
2023-05-05T04:12:53.699Z,7096.00
2023-05-05T04:13:53.678Z,6986.00
2023-05-05T04:14:53.686Z,6884.00
2023-05-05T04:15:53.742Z,6726.00
2023-05-05T04:16:53.685Z,6650.00
2023-05-05T04:17:53.762Z,6500.00
2023-05-05T04:18:53.695Z,6397.00
2023-05-05T04:19:53.712Z,6330.00
2023-05-05T04:20:53.716Z,6275.00
2023-05-05T04:21:53.715Z,6172.00
2023-05-05T04:22:53.750Z,6124.00
2023-05-05T04:23:53.764Z,6046.00
2023-05-05T04:24:53.782Z,6009.00
2023-05-05T04:25:53.817Z,5990.00
2023-05-05T04:26:53.874Z,5986.00
2023-05-05T04:27:53.913Z,5956.00
2023-05-05T04:28:53.951Z,5922.00
2023-05-05T04:29:54.036Z,5869.00
2023-05-05T04:30:54.108Z,5851.00
2023-05-05T04:31:54.093Z,5881.00
2023-05-05T04:32:54.215Z,5879.00
2023-05-05T04:33:54.231Z,6036.00
2023-05-05T04:34:54.271Z,6461.00
2023-05-05T04:35:54.348Z,6734.00
2023-05-05T04:36:54.437Z,7008.00
2023-05-05T04:37:54.506Z,7173.00
2023-05-05T04:38:54.580Z,7137.00
2023-05-05T04:39:54.478Z,7135.00
2023-05-05T04:40:54.510Z,7129.00
2023-05-05T04:41:54.495Z,7041.00
2023-05-05T04:42:54.527Z,6831.00
2023-05-05T04:43:54.562Z,6657.00
2023-05-05T04:44:54.621Z,6564.00
2023-05-05T04:45:54.706Z,6656.00
2023-05-05T04:46:54.795Z,6555.00
2023-05-05T04:47:54.844Z,6380.00
2023-05-05T04:48:54.844Z,6226.00
2023-05-05T04:49:54.897Z,6182.00
2023-05-05T04:50:54.960Z,6191.00
2023-05-05T04:51:55.018Z,6183.00
2023-05-05T04:52:55.098Z,6209.00
2023-05-05T04:53:55.309Z,6199.00
2023-05-05T04:54:55.205Z,6247.00
2023-05-05T04:55:55.256Z,6408.00
2023-05-05T04:56:55.322Z,6559.00
2023-05-05T04:57:55.370Z,6675.00
2023-05-05T04:58:55.429Z,6771.00
2023-05-05T04:59:55.477Z,6932.00
2023-05-05T05:00:55.519Z,7082.00
2023-05-05T05:01:55.631Z,7125.00
2023-05-05T05:02:55.727Z,7091.00
2023-05-05T05:03:55.732Z,7201.00
2023-05-05T05:04:55.707Z,7326.00
2023-05-05T05:05:55.728Z,7370.00
2023-05-05T05:06:57.559Z,7422.00
2023-05-05T05:07:55.755Z,7458.00
2023-05-05T05:08:55.745Z,7438.00
2023-05-05T05:09:55.746Z,7290.00
2023-05-05T05:10:55.728Z,7267.00
2023-05-05T05:11:55.715Z,7237.00
2023-05-05T05:12:55.818Z,7154.00
2023-05-05T05:13:55.717Z,7110.00
2023-05-05T05:14:55.711Z,7153.00
2023-05-05T05:15:55.704Z,7141.00
2023-05-05T05:16:55.756Z,7290.00
2023-05-05T05:17:55.726Z,7506.00
2023-05-05T05:18:55.689Z,7512.00
2023-05-05T05:19:55.654Z,7400.00
2023-05-05T05:20:55.689Z,7261.00
2023-05-05T05:21:55.653Z,7223.00
2023-05-05T05:22:55.646Z,7208.00
2023-05-05T05:23:55.661Z,7337.00
2023-05-05T05:24:55.651Z,7378.00
2023-05-05T05:25:55.655Z,7451.00
2023-05-05T05:26:55.960Z,7426.00
2023-05-05T05:28:08.738Z,7406.00
2023-05-05T05:28:56.616Z,7407.00
2023-05-05T05:29:55.616Z,7430.00
2023-05-05T05:30:55.595Z,7496.00
2023-05-05T05:31:55.658Z,7526.00
2023-05-05T05:32:55.623Z,7517.00
2023-05-05T05:33:55.618Z,7460.00
2023-05-05T05:34:55.574Z,7513.00
2023-05-05T05:35:55.559Z,7596.00
2023-05-05T05:36:55.533Z,7612.00
2023-05-05T05:37:55.535Z,7597.00
2023-05-05T05:38:55.529Z,7491.00
2023-05-05T05:39:55.548Z,7362.00
2023-05-05T05:40:55.515Z,7242.00
2023-05-05T05:41:55.537Z,7174.00
2023-05-05T05:42:55.517Z,7115.00
2023-05-05T05:43:55.499Z,6991.00
2023-05-05T05:44:55.489Z,6877.00
2023-05-05T05:45:55.508Z,6773.00
2023-05-05T05:46:55.484Z,6640.00
2023-05-05T05:47:55.512Z,6604.00
2023-05-05T05:48:55.467Z,6595.00
2023-05-05T05:49:55.459Z,6574.00
2023-05-05T05:50:55.521Z,6565.00
2023-05-05T05:51:55.492Z,6577.00
2023-05-05T05:52:55.465Z,6465.00
2023-05-05T05:53:58.212Z,6499.00
2023-05-05T05:54:55.486Z,6556.00
2023-05-05T05:55:55.599Z,6692.00
2023-05-05T05:56:55.447Z,6989.00
2023-05-05T05:57:55.551Z,7391.00
2023-05-05T05:58:55.423Z,7716.00
2023-05-05T05:59:55.435Z,7649.00
2023-05-05T06:00:55.405Z,7556.00
2023-05-05T06:01:55.390Z,7629.00
2023-05-05T06:02:55.617Z,7682.00
2023-05-05T06:03:55.548Z,7779.00
2023-05-05T06:04:55.363Z,7789.00
2023-05-05T06:05:55.402Z,7758.00
2023-05-05T06:06:55.362Z,7673.00
2023-05-05T06:07:55.394Z,7683.00
2023-05-05T06:08:55.343Z,7720.00
2023-05-05T06:09:55.361Z,7722.00
2023-05-05T06:10:55.388Z,7769.00
2023-05-05T06:11:55.333Z,7712.00
2023-05-05T06:12:55.370Z,7549.00
2023-05-05T06:13:55.373Z,7492.00
2023-05-05T06:14:55.357Z,7577.00
2023-05-05T06:15:55.336Z,7610.00
2023-05-05T06:16:55.291Z,7242.00
2023-05-05T06:17:55.359Z,6742.00
2023-05-05T06:18:55.487Z,6610.00
2023-05-05T06:19:55.268Z,6576.00
2023-05-05T06:20:55.263Z,6439.00
2023-05-05T06:21:55.280Z,6149.00
2023-05-05T06:22:55.262Z,6019.00
2023-05-05T06:23:55.278Z,6060.00
2023-05-05T06:24:55.231Z,6212.00
2023-05-05T06:25:55.241Z,6321.00
2023-05-05T06:26:55.225Z,6234.00
2023-05-05T06:27:55.360Z,6118.00
2023-05-05T06:28:55.259Z,6093.00
2023-05-05T06:29:55.290Z,6104.00
2023-05-05T06:30:55.196Z,5938.00
2023-05-05T06:31:55.466Z,5747.00
2023-05-05T06:32:55.253Z,5713.00
2023-05-05T06:33:55.287Z,5644.00
2023-05-05T06:34:55.226Z,5243.00
2023-05-05T06:35:55.196Z,5087.00
2023-05-05T06:36:55.194Z,4983.00
2023-05-05T06:37:55.287Z,4811.00
2023-05-05T06:38:55.124Z,4767.00
2023-05-05T06:39:55.133Z,4810.00
2023-05-05T06:40:55.118Z,4844.00
2023-05-05T06:41:55.103Z,4919.00
2023-05-05T06:42:55.104Z,4988.00
2023-05-05T06:43:55.459Z,5037.00
2023-05-05T06:44:55.098Z,4990.00
2023-05-05T06:45:55.099Z,4969.00
2023-05-05T06:46:55.559Z,4877.00
2023-05-05T06:47:55.133Z,4959.00
2023-05-05T06:48:55.072Z,4777.00
2023-05-05T06:49:55.073Z,4545.00
2023-05-05T06:50:55.133Z,4521.00
2023-05-05T06:51:55.187Z,4508.00
2023-05-05T06:52:55.278Z,4501.00
2023-05-05T06:53:55.480Z,4383.00
2023-05-05T06:54:55.377Z,4260.00
2023-05-05T06:55:55.438Z,4314.00
2023-05-05T06:56:56.556Z,4381.00
2023-05-05T06:57:55.539Z,4436.00
2023-05-05T06:58:55.631Z,4425.00
2023-05-05T06:59:55.671Z,4476.00
2023-05-05T07:00:55.778Z,4447.00
2023-05-05T07:01:56.596Z,4344.00
2023-05-05T07:02:55.871Z,4226.00
2023-05-05T07:03:55.895Z,4066.00
2023-05-05T07:04:55.925Z,4008.00
2023-05-05T07:05:55.966Z,3868.00
2023-05-05T07:06:56.017Z,3835.00
2023-05-05T07:07:56.073Z,3899.00
2023-05-05T07:08:56.481Z,3939.00
2023-05-05T07:09:56.145Z,3989.00
2023-05-05T07:10:56.214Z,3947.00
2023-05-05T07:11:56.555Z,3880.00
2023-05-05T07:12:56.240Z,3910.00
2023-05-05T07:13:56.294Z,3929.00
2023-05-05T07:14:56.274Z,3803.00
2023-05-05T07:15:56.325Z,3810.00
2023-05-05T07:16:56.346Z,3960.00
2023-05-05T07:17:56.476Z,3867.00
2023-05-05T07:18:56.334Z,3830.00
2023-05-05T07:19:56.395Z,3847.00
2023-05-05T07:20:56.358Z,3890.00
2023-05-05T07:21:56.376Z,4065.00
2023-05-05T07:22:56.372Z,3864.00
2023-05-05T07:23:56.375Z,3638.00
2023-05-05T07:24:56.387Z,3554.00
2023-05-05T07:25:56.436Z,3581.00
2023-05-05T07:26:56.488Z,3512.00
2023-05-05T07:27:56.574Z,3521.00
2023-05-05T07:28:56.587Z,3337.00
2023-05-05T07:29:56.624Z,3347.00
2023-05-05T07:30:56.647Z,3411.00
2023-05-05T07:31:56.799Z,3408.00
2023-05-05T07:32:56.908Z,3360.00
2023-05-05T07:33:56.866Z,3406.00
2023-05-05T07:34:56.882Z,3195.00
2023-05-05T07:35:56.935Z,3063.00
2023-05-05T07:36:56.995Z,3067.00
2023-05-05T07:37:56.996Z,3082.00
2023-05-05T07:38:57.064Z,3082.00
2023-05-05T07:39:57.133Z,3141.00
2023-05-05T07:40:57.460Z,3163.00
2023-05-05T07:41:57.285Z,3137.00
2023-05-05T07:42:57.214Z,3035.00
2023-05-05T07:43:57.495Z,3065.00
2023-05-05T07:44:57.317Z,3027.00
2023-05-05T07:45:57.315Z,2963.00
2023-05-05T07:46:57.277Z,3080.00
2023-05-05T07:47:57.424Z,3069.00
2023-05-05T07:48:57.499Z,3013.00
2023-05-05T07:49:57.376Z,3030.00
2023-05-05T07:50:57.331Z,3004.00
2023-05-05T07:51:57.360Z,2953.00
2023-05-05T07:53:10.142Z,3067.00
2023-05-05T07:53:58.483Z,3062.00
2023-05-05T07:54:57.333Z,2984.00
2023-05-05T07:55:57.335Z,3008.00
2023-05-05T07:56:57.344Z,3044.00
2023-05-05T07:57:57.319Z,3027.00
2023-05-05T07:58:57.496Z,3005.00
2023-05-05T07:59:57.329Z,2859.00
2023-05-05T08:00:57.335Z,2767.00
2023-05-05T08:01:57.485Z,2632.00
2023-05-05T08:02:57.323Z,2454.00
2023-05-05T08:03:57.337Z,2495.00
2023-05-05T08:04:57.299Z,2516.00
2023-05-05T08:05:57.376Z,2593.00
2023-05-05T08:06:57.266Z,2742.00
2023-05-05T08:07:57.260Z,2759.00
2023-05-05T08:08:57.272Z,2661.00
2023-05-05T08:09:57.326Z,2633.00
2023-05-05T08:10:57.366Z,2735.00
2023-05-05T08:11:57.459Z,2760.00
2023-05-05T08:12:57.522Z,2793.00
2023-05-05T08:13:57.530Z,2815.00
2023-05-05T08:14:57.593Z,2760.00
2023-05-05T08:15:57.696Z,2728.00
2023-05-05T08:16:57.734Z,2658.00
2023-05-05T08:17:57.835Z,2632.00
2023-05-05T08:18:58.004Z,2554.00
2023-05-05T08:19:57.902Z,2508.00
2023-05-05T08:20:58.006Z,2425.00
2023-05-05T08:22:00.559Z,2381.00
2023-05-05T08:22:59.200Z,2349.00
2023-05-05T08:23:58.563Z,2360.00
2023-05-05T08:24:58.034Z,2406.00
2023-05-05T08:25:58.147Z,2516.00
2023-05-05T08:26:57.998Z,2565.00
2023-05-05T08:27:57.974Z,2655.00
2023-05-05T08:28:58.022Z,2886.00
2023-05-05T08:29:58.011Z,3026.00
2023-05-05T08:30:57.952Z,3112.00
2023-05-05T08:31:58.029Z,3121.00
2023-05-05T08:32:58.023Z,3143.00
2023-05-05T08:33:57.940Z,3111.00
2023-05-05T08:34:57.972Z,3038.00
2023-05-05T08:35:57.913Z,2941.00
2023-05-05T08:36:57.889Z,2820.00
2023-05-05T08:37:59.221Z,2652.00
2023-05-05T08:38:57.900Z,2426.00
2023-05-05T08:39:57.912Z,2308.00
2023-05-05T08:40:57.903Z,2155.00
2023-05-05T08:41:57.878Z,1864.00
2023-05-05T08:42:57.892Z,1820.00
2023-05-05T08:43:57.866Z,1824.00
2023-05-05T08:44:59.081Z,1871.00
2023-05-05T08:45:57.879Z,1913.00
2023-05-05T08:46:57.992Z,1932.00
2023-05-05T08:47:58.034Z,1939.00
2023-05-05T08:48:57.857Z,2046.00
2023-05-05T08:49:57.877Z,2136.00
2023-05-05T08:50:59.800Z,2163.00
2023-05-05T08:51:58.073Z,2144.00
2023-05-05T08:52:58.210Z,2002.00
2023-05-05T08:53:58.556Z,2044.00
2023-05-05T08:54:58.186Z,2114.00
2023-05-05T08:55:58.200Z,2130.00
2023-05-05T08:56:58.231Z,2208.00
2023-05-05T08:57:58.347Z,2138.00
2023-05-05T08:58:58.279Z,1936.00
2023-05-05T08:59:58.332Z,1884.00
2023-05-05T09:00:58.351Z,2043.00
2023-05-05T09:01:58.391Z,2129.00
2023-05-05T09:02:58.613Z,2071.00
2023-05-05T09:03:58.491Z,2027.00
2023-05-05T09:04:58.535Z,1908.00
2023-05-05T09:05:58.594Z,1858.00
2023-05-05T09:06:58.644Z,1867.00
2023-05-05T09:07:58.753Z,1653.00
2023-05-05T09:08:59.803Z,1658.00
2023-05-05T09:09:58.884Z,1499.00
2023-05-05T09:10:58.902Z,1517.00
2023-05-05T09:11:59.004Z,1621.00
2023-05-05T09:12:59.029Z,1698.00
2023-05-05T09:13:59.079Z,1801.00
2023-05-05T09:14:59.511Z,1952.00
2023-05-05T09:15:59.166Z,1941.00
2023-05-05T09:16:59.222Z,1872.00
2023-05-05T09:17:59.192Z,1772.00
2023-05-05T09:18:59.230Z,1783.00
2023-05-05T09:19:59.266Z,1833.00
2023-05-05T09:20:59.658Z,1908.00
2023-05-05T09:21:59.381Z,2039.00
2023-05-05T09:22:59.416Z,1969.00
2023-05-05T09:24:07.423Z,1951.00
2023-05-05T09:25:00.440Z,1957.00
2023-05-05T09:25:59.538Z,2001.00
2023-05-05T09:26:59.408Z,2122.00
2023-05-05T09:27:59.402Z,2160.00
2023-05-05T09:28:59.432Z,2013.00
2023-05-05T09:29:59.378Z,1750.00
2023-05-05T09:30:59.446Z,1675.00
2023-05-05T09:31:59.373Z,1417.00
2023-05-05T09:32:59.615Z,1316.00
2023-05-05T09:33:59.357Z,1304.00
2023-05-05T09:34:59.377Z,1233.00
2023-05-05T09:35:59.359Z,1157.00
2023-05-05T09:36:59.343Z,1205.00
2023-05-05T09:37:59.528Z,1438.00
2023-05-05T09:38:59.319Z,1711.00
2023-05-05T09:39:59.324Z,1802.00
2023-05-05T09:40:59.329Z,1978.00
2023-05-05T09:41:59.463Z,2289.00
2023-05-05T09:42:59.293Z,2360.00
2023-05-05T09:43:59.304Z,2106.00
2023-05-05T09:44:59.973Z,1765.00
2023-05-05T09:45:59.301Z,1600.00
2023-05-05T09:46:59.298Z,1644.00
2023-05-05T09:48:00.702Z,2001.00
2023-05-05T09:48:59.398Z,2144.00
2023-05-05T09:49:59.456Z,1802.00
2023-05-05T09:50:59.496Z,1720.00
2023-05-05T09:51:59.538Z,1613.00
2023-05-05T09:52:59.596Z,1419.00
2023-05-05T09:53:59.630Z,1198.00
2023-05-05T09:54:59.672Z,1041.00
2023-05-05T09:55:59.734Z,947.00
2023-05-05T09:56:59.773Z,941.00
2023-05-05T09:57:59.851Z,888.00
2023-05-05T09:58:59.827Z,795.00
2023-05-05T09:59:59.888Z,749.00
2023-05-05T10:00:59.910Z,677.00
2023-05-05T10:02:00.034Z,620.00
2023-05-05T10:03:00.032Z,572.00
2023-05-05T10:03:59.998Z,586.00
2023-05-05T10:05:02.144Z,515.00
2023-05-05T10:06:00.040Z,400.00
2023-05-05T10:07:00.065Z,400.00
2023-05-05T10:08:00.078Z,400.00
2023-05-05T10:09:00.125Z,457.00
2023-05-05T10:10:00.201Z,506.00
2023-05-05T10:11:00.139Z,518.00
2023-05-05T10:12:00.182Z,513.00
2023-05-05T10:13:00.200Z,503.00
2023-05-05T10:14:00.207Z,824.00
2023-05-05T10:15:00.149Z,1020.00
2023-05-05T10:16:00.176Z,809.00
2023-05-05T10:17:00.144Z,583.00
2023-05-05T10:18:07.512Z,480.00
2023-05-05T10:19:01.117Z,400.00
2023-05-05T10:20:00.229Z,400.00
2023-05-05T10:21:00.162Z,414.00
2023-05-05T10:22:00.131Z,561.00
2023-05-05T10:23:00.129Z,1065.00
2023-05-05T10:24:00.126Z,868.00
2023-05-05T10:25:00.113Z,760.00
2023-05-05T10:26:00.066Z,910.00
2023-05-05T10:27:00.057Z,1048.00
2023-05-05T10:28:00.106Z,1046.00
2023-05-05T10:29:00.180Z,1072.00
2023-05-05T10:30:00.649Z,1175.00
2023-05-05T10:31:00.262Z,1163.00
2023-05-05T10:32:00.311Z,884.00
2023-05-05T10:34:00.602Z,1071.00
2023-05-05T10:35:00.419Z,958.00
2023-05-05T10:36:00.469Z,972.00
2023-05-05T10:37:00.513Z,1078.00
2023-05-05T10:38:00.531Z,724.00
2023-05-05T10:39:00.609Z,571.00
2023-05-05T10:40:00.602Z,512.00
2023-05-05T10:41:00.621Z,485.00
2023-05-05T10:42:00.653Z,505.00
2023-05-05T10:43:00.685Z,560.00
2023-05-05T10:44:03.626Z,625.00
2023-05-05T10:45:00.829Z,595.00
2023-05-05T10:46:01.109Z,572.00
2023-05-05T10:47:00.693Z,603.00
2023-05-05T10:48:00.792Z,657.00
2023-05-05T10:49:00.729Z,744.00
2023-05-05T10:50:00.690Z,760.00
2023-05-05T10:51:00.681Z,594.00
2023-05-05T10:52:00.678Z,586.00
2023-05-05T10:53:00.698Z,568.00
2023-05-05T10:54:00.707Z,545.00
2023-05-05T10:55:00.651Z,482.00
2023-05-05T10:56:00.653Z,523.00
2023-05-05T10:57:00.649Z,592.00
2023-05-05T10:58:00.635Z,651.00
2023-05-05T10:59:01.035Z,645.00
2023-05-05T11:00:01.062Z,599.00
2023-05-05T11:01:00.632Z,637.00
2023-05-05T11:02:00.621Z,717.00
2023-05-05T11:03:00.712Z,684.00
2023-05-05T11:04:00.628Z,674.00
2023-05-05T11:05:00.585Z,618.00
2023-05-05T11:06:00.555Z,609.00
2023-05-05T11:07:00.571Z,630.00
2023-05-05T11:08:00.545Z,607.00
2023-05-05T11:09:00.548Z,561.00
2023-05-05T11:10:00.573Z,491.00
2023-05-05T11:11:00.520Z,502.00
2023-05-05T11:12:00.514Z,500.00
2023-05-05T11:13:00.558Z,644.00
2023-05-05T11:14:00.521Z,930.00
2023-05-05T11:15:00.519Z,862.00
2023-05-05T11:16:00.510Z,826.00
2023-05-05T11:17:00.502Z,705.00
2023-05-05T11:18:01.929Z,744.00
2023-05-05T11:19:00.456Z,836.00
2023-05-05T11:20:00.566Z,781.00
2023-05-05T11:21:00.442Z,658.00
2023-05-05T11:22:00.437Z,614.00
2023-05-05T11:23:00.457Z,571.00
2023-05-05T11:24:00.436Z,564.00
2023-05-05T11:25:00.413Z,553.00
2023-05-05T11:26:00.437Z,535.00
2023-05-05T11:27:00.431Z,506.00
2023-05-05T11:28:00.440Z,500.00
2023-05-05T11:29:00.411Z,500.00
2023-05-05T11:30:00.400Z,515.00
2023-05-05T11:31:00.426Z,564.00
2023-05-05T11:32:00.388Z,525.00
2023-05-05T11:33:00.410Z,583.00
2023-05-05T11:34:00.423Z,707.00
2023-05-05T11:35:00.354Z,856.00
2023-05-05T11:36:00.388Z,722.00
2023-05-05T11:37:00.338Z,648.00
2023-05-05T11:38:00.346Z,651.00
2023-05-05T11:39:00.341Z,691.00
2023-05-05T11:40:00.346Z,420.00
2023-05-05T11:41:00.318Z,425.00
2023-05-05T11:42:01.026Z,547.00
2023-05-05T11:43:00.539Z,549.00
2023-05-05T11:44:00.562Z,555.00
2023-05-05T11:45:00.616Z,522.00
2023-05-05T11:46:00.648Z,457.00
2023-05-05T11:47:00.640Z,452.00
2023-05-05T11:48:00.716Z,506.00
2023-05-05T11:49:00.668Z,511.00
2023-05-05T11:50:00.732Z,496.00
2023-05-05T11:51:00.678Z,561.00
2023-05-05T11:52:00.742Z,542.00
2023-05-05T11:53:00.726Z,536.00
2023-05-05T11:54:00.746Z,496.00
2023-05-05T11:55:00.745Z,528.00
2023-05-05T11:56:00.738Z,510.00
2023-05-05T11:57:00.744Z,624.00
2023-05-05T11:58:00.760Z,634.00
2023-05-05T11:59:00.831Z,643.00
2023-05-05T12:00:00.879Z,627.00
2023-05-05T12:01:00.870Z,714.00
2023-05-05T12:02:00.886Z,709.00
2023-05-05T12:03:01.012Z,572.00
2023-05-05T12:04:01.315Z,581.00
2023-05-05T12:05:01.086Z,627.00
2023-05-05T12:06:01.210Z,608.00
2023-05-05T12:07:01.188Z,612.00
2023-05-05T12:08:01.226Z,843.00
2023-05-05T12:09:01.281Z,833.00
2023-05-05T12:10:01.384Z,1016.00
2023-05-05T12:11:01.330Z,1111.00